Time;durP1;ratioP1;P1;durP2;ratioP2;P2;SDS_P1;SDS_P2;PMS_P1;PMS_P2;Temp;Humidity;BMP_temperature;BMP_pressure;BME280_temperature;BME280_humidity;BME280_pressure;Samples;Min_cycle;Max_cycle;Signal;HPM_P1;HPM_P2
2023/01/30 00:00:08;;;;;;;;;;;-0.20;99.90;;;;;;4878077;29;19987;-77
2023/01/30 00:02:36;;;;;;;;;;;-0.20;99.90;;;;;;4877400;29;19928;-77
2023/01/30 00:05:02;;;;;;;;;;;-0.20;99.90;;;;;;4880445;29;21597;-77
2023/01/30 00:07:29;;;;;;;;;;;-0.30;99.90;;;;;;4875204;29;19934;-77
2023/01/30 00:09:56;;;;;;;;;;;-0.30;99.90;;;;;;4876756;29;19992;-78
2023/01/30 00:12:24;;;;;;;;;;;-0.20;99.90;;;;;;4876165;29;19934;-77
2023/01/30 00:14:52;;;;;;;;;;;-0.30;99.90;;;;;;4872212;29;19999;-77
2023/01/30 00:17:19;;;;;;;;;;;-0.30;99.90;;;;;;4876590;29;19934;-78
2023/01/30 00:19:45;;;;;;;;;;;-0.30;99.90;;;;;;4876041;29;19935;-78
2023/01/30 00:22:12;;;;;;;;;;;-0.30;99.90;;;;;;4878917;29;19936;-78
2023/01/30 00:24:39;;;;;;;;;;;-0.30;99.90;;;;;;4871748;29;20324;-77
2023/01/30 00:27:06;;;;;;;;;;;-0.30;99.90;;;;;;4874631;29;19927;-77
2023/01/30 00:29:33;;;;;;;;;;;-0.30;99.90;;;;;;4876689;29;19935;-78
2023/01/30 00:32:03;;;;;;;;;;;-0.30;99.90;;;;;;4877964;29;19939;-77
2023/01/30 00:34:31;;;;;;;;;;;-0.30;99.90;;;;;;4877782;29;19966;-78
2023/01/30 00:36:57;;;;;;;;;;;-0.30;99.90;;;;;;4879250;29;19943;-78
2023/01/30 00:39:26;;;;;;;;;;;-0.30;99.90;;;;;;4880647;29;19928;-77
2023/01/30 00:47:24;;;;;;;;;;;-0.40;99.90;;;;;;4876280;29;19932;-77
2023/01/30 00:49:53;;;;;;;;;;;-0.40;99.90;;;;;;4875063;29;19983;-78
2023/01/30 00:52:20;;;;;;;;;;;-0.40;99.90;;;;;;4880231;29;19932;-78
2023/01/30 00:54:50;;;;;;;;;;;-0.40;99.90;;;;;;4860149;29;19935;-78
2023/01/30 00:57:17;;;;;;;;;;;-0.40;99.90;;;;;;4876696;29;19928;-78
2023/01/30 00:59:44;;;;;;;;;;;-0.40;99.90;;;;;;4876599;29;20316;-77
2023/01/30 01:02:12;;;;;;;;;;;-0.40;99.90;;;;;;4879233;29;19987;-78
2023/01/30 01:04:43;;;;;;;;;;;-0.40;99.90;;;;;;4880199;29;19928;-78
2023/01/30 01:07:11;;;;;;;;;;;-0.40;99.90;;;;;;4879433;29;19983;-77
2023/01/30 01:09:38;;;;;;;;;;;-0.40;99.90;;;;;;4875527;29;19956;-79
2023/01/30 01:12:06;;;;;;;;;;;-0.40;99.90;;;;;;4877736;29;19928;-77
2023/01/30 01:14:32;;;;;;;;;;;-0.40;99.90;;;;;;4877203;29;20004;-78
2023/01/30 01:17:00;;;;;;;;;;;-0.40;99.90;;;;;;4878237;29;19963;-77
2023/01/30 01:19:27;;;;;;;;;;;-0.40;99.90;;;;;;4877483;29;19927;-77
2023/01/30 01:21:55;;;;;;;;;;;-0.40;99.90;;;;;;4874957;29;19949;-77
2023/01/30 01:24:22;;;;;;;;;;;-0.40;99.90;;;;;;4874778;29;19935;-78
2023/01/30 01:26:49;;;;;;;;;;;-0.40;99.90;;;;;;4872749;29;19928;-77
2023/01/30 01:29:16;;;;;;;;;;;-0.40;99.90;;;;;;4875687;29;19932;-78
2023/01/30 01:31:44;;;;;;;;;;;-0.40;99.90;;;;;;4875356;29;19985;-78
2023/01/30 01:34:11;;;;;;;;;;;-0.50;99.90;;;;;;4873821;29;20308;-78
2023/01/30 01:36:37;;;;;;;;;;;-0.50;99.90;;;;;;4876152;29;19986;-78
2023/01/30 01:39:06;;;;;;;;;;;-0.40;99.90;;;;;;4875864;29;19928;-77
2023/01/30 01:41:32;;;;;;;;;;;-0.50;99.90;;;;;;4873367;29;20406;-77
2023/01/30 01:44:00;;;;;;;;;;;-0.50;99.90;;;;;;4877390;29;19924;-77
2023/01/30 01:46:29;;;;;;;;;;;-0.50;99.90;;;;;;4877664;29;20450;-78
2023/01/30 01:48:57;;;;;;;;;;;-0.40;99.90;;;;;;4879059;29;20014;-78
2023/01/30 01:51:26;;;;;;;;;;;-0.50;99.90;;;;;;4876274;29;21705;-78
2023/01/30 01:53:56;;;;;;;;;;;-0.50;99.90;;;;;;4862773;29;19943;-78
2023/01/30 01:56:25;;;;;;;;;;;-0.50;99.90;;;;;;4875124;29;19931;-78
2023/01/30 01:58:53;;;;;;;;;;;-0.50;99.90;;;;;;4881178;29;19928;-77
2023/01/30 02:01:20;;;;;;;;;;;-0.50;99.90;;;;;;4877434;29;20011;-77
2023/01/30 02:03:50;;;;;;;;;;;-0.50;99.90;;;;;;4882377;29;19932;-77
2023/01/30 02:06:18;;;;;;;;;;;-0.60;99.90;;;;;;4874947;29;19928;-77
2023/01/30 02:08:46;;;;;;;;;;;-0.50;99.90;;;;;;4872471;29;19955;-78
2023/01/30 02:11:17;;;;;;;;;;;-0.60;99.90;;;;;;4874642;29;19995;-78
2023/01/30 02:13:46;;;;;;;;;;;-0.60;99.90;;;;;;4874422;29;19970;-78
2023/01/30 02:16:13;;;;;;;;;;;-0.60;99.90;;;;;;4883421;29;19931;-77
2023/01/30 02:18:40;;;;;;;;;;;-0.60;99.90;;;;;;4876694;29;19934;-78
2023/01/30 02:21:27;;;;;;;;;;;-0.60;99.90;;;;;;4873146;29;19934;-77
2023/01/30 02:24:21;;;;;;;;;;;-0.60;99.90;;;;;;4872429;29;20083;-77
2023/01/30 02:26:54;;;;;;;;;;;-0.60;99.90;;;;;;4866022;29;19963;-77
2023/01/30 02:29:39;;;;;;;;;;;-0.60;99.90;;;;;;4874727;29;19939;-77
2023/01/30 02:32:13;;;;;;;;;;;-0.60;99.90;;;;;;4871640;29;19928;-78
2023/01/30 02:34:44;;;;;;;;;;;-0.60;99.90;;;;;;4871113;29;19928;-78
2023/01/30 02:37:17;;;;;;;;;;;-0.60;99.90;;;;;;4872044;29;20334;-77
2023/01/30 02:39:48;;;;;;;;;;;-0.60;99.90;;;;;;4873567;29;20356;-77
2023/01/30 02:42:20;;;;;;;;;;;-0.60;99.90;;;;;;4858184;29;19935;-78
2023/01/30 02:44:50;;;;;;;;;;;-0.60;99.90;;;;;;4873360;29;19927;-77
2023/01/30 02:47:21;;;;;;;;;;;-0.60;99.90;;;;;;4855580;29;19936;-78
2023/01/30 02:49:52;;;;;;;;;;;-0.60;99.90;;;;;;4884445;29;19931;-77
2023/01/30 02:52:19;;;;;;;;;;;-0.60;99.90;;;;;;4875433;29;19983;-77
2023/01/30 02:54:46;;;;;;;;;;;-0.60;99.90;;;;;;4874455;29;19934;-78
2023/01/30 02:57:18;;;;;;;;;;;-0.60;99.90;;;;;;4877026;29;19948;-77
2023/01/30 02:59:47;;;;;;;;;;;-0.60;99.90;;;;;;4872997;29;19935;-77
2023/01/30 03:02:21;;;;;;;;;;;-0.60;99.90;;;;;;4870507;29;20468;-78
2023/01/30 03:04:52;;;;;;;;;;;-0.60;99.90;;;;;;4873325;29;19927;-77
2023/01/30 03:07:25;;;;;;;;;;;-0.60;99.90;;;;;;4873175;29;19932;-77
2023/01/30 03:09:58;;;;;;;;;;;-0.70;99.90;;;;;;4873649;29;19928;-77
2023/01/30 03:12:28;;;;;;;;;;;-0.70;99.90;;;;;;4871541;29;19932;-77
2023/01/30 03:14:56;;;;;;;;;;;-0.70;99.90;;;;;;4878085;29;19928;-78
2023/01/30 03:17:26;;;;;;;;;;;-0.70;99.90;;;;;;4874307;29;19928;-77
2023/01/30 03:19:54;;;;;;;;;;;-0.70;99.90;;;;;;4871136;29;19963;-77
2023/01/30 03:22:21;;;;;;;;;;;-0.70;99.90;;;;;;4878183;29;19995;-78
2023/01/30 03:24:49;;;;;;;;;;;-0.70;99.90;;;;;;4872829;29;19928;-77
2023/01/30 03:27:17;;;;;;;;;;;-0.70;99.90;;;;;;4858536;29;19927;-77
2023/01/30 03:29:46;;;;;;;;;;;-0.70;99.90;;;;;;4870639;29;19984;-76
2023/01/30 03:32:13;;;;;;;;;;;-0.70;99.90;;;;;;4865349;29;19934;-78
2023/01/30 03:34:42;;;;;;;;;;;-0.70;99.90;;;;;;4882438;29;20022;-78
2023/01/30 03:37:10;;;;;;;;;;;-0.70;99.90;;;;;;4877772;29;19992;-77
2023/01/30 03:39:37;;;;;;;;;;;-0.70;99.90;;;;;;4874917;29;20022;-77
2023/01/30 03:42:05;;;;;;;;;;;-0.70;99.90;;;;;;4877314;29;19978;-77
2023/01/30 03:44:32;;;;;;;;;;;-0.70;99.90;;;;;;4872231;29;20027;-77
2023/01/30 03:46:59;;;;;;;;;;;-0.70;99.90;;;;;;4881121;29;19934;-77
2023/01/30 03:49:26;;;;;;;;;;;-0.70;99.90;;;;;;4863158;29;19967;-77
2023/01/30 03:51:55;;;;;;;;;;;-0.70;99.90;;;;;;4878136;29;19936;-77
2023/01/30 03:54:22;;;;;;;;;;;-0.70;99.90;;;;;;4877368;29;19928;-77
2023/01/30 03:56:49;;;;;;;;;;;-0.70;99.90;;;;;;4876268;29;19932;-77
2023/01/30 03:59:17;;;;;;;;;;;-0.70;99.90;;;;;;4876872;29;19928;-77
2023/01/30 04:01:51;;;;;;;;;;;-0.70;99.90;;;;;;4877336;29;20031;-77
2023/01/30 04:04:18;;;;;;;;;;;-0.70;99.90;;;;;;4878792;29;19928;-78
2023/01/30 04:06:45;;;;;;;;;;;-0.70;99.90;;;;;;4859050;29;20022;-77
2023/01/30 04:09:14;;;;;;;;;;;-0.80;99.90;;;;;;4876347;29;19932;-77
2023/01/30 04:11:44;;;;;;;;;;;-0.80;99.90;;;;;;4880092;29;20134;-77
2023/01/30 04:14:12;;;;;;;;;;;-0.70;99.90;;;;;;4876259;29;20430;-77
2023/01/30 04:16:54;;;;;;;;;;;-0.70;99.90;;;;;;4873789;29;20300;-77
2023/01/30 04:19:36;;;;;;;;;;;-0.80;99.90;;;;;;4866774;29;19928;-77
2023/01/30 04:22:03;;;;;;;;;;;-0.80;99.90;;;;;;4872902;29;19975;-78
2023/01/30 04:24:31;;;;;;;;;;;-0.80;99.90;;;;;;4875478;29;19950;-78
2023/01/30 04:26:58;;;;;;;;;;;-0.80;99.90;;;;;;4875849;29;20399;-77
2023/01/30 04:29:25;;;;;;;;;;;-0.90;99.90;;;;;;4871315;29;20326;-77
2023/01/30 04:31:54;;;;;;;;;;;-0.20;99.90;;;;;;4874772;29;19935;-77
2023/01/30 04:34:27;;;;;;;;;;;-0.90;99.90;;;;;;4867317;29;20363;-77
2023/01/30 04:36:54;;;;;;;;;;;-0.90;99.90;;;;;;4873544;29;19928;-77
2023/01/30 04:39:20;;;;;;;;;;;-0.90;99.90;;;;;;4869535;29;19935;-77
2023/01/30 04:41:49;;;;;;;;;;;-0.90;99.90;;;;;;4852137;29;19932;-77
2023/01/30 04:44:16;;;;;;;;;;;-0.90;99.90;;;;;;4875610;29;20437;-77
2023/01/30 04:46:48;;;;;;;;;;;-0.90;99.90;;;;;;4857688;29;19928;-78
2023/01/30 04:49:16;;;;;;;;;;;-0.90;99.90;;;;;;4874803;29;19963;-78
2023/01/30 04:51:43;;;;;;;;;;;-0.90;99.90;;;;;;4864862;29;19928;-78
2023/01/30 04:54:10;;;;;;;;;;;-0.90;99.90;;;;;;4874695;29;19935;-78
2023/01/30 04:56:37;;;;;;;;;;;-0.90;99.90;;;;;;4872695;29;19931;-76
2023/01/30 04:59:06;;;;;;;;;;;-0.90;99.90;;;;;;4864089;29;19932;-77
2023/01/30 05:01:39;;;;;;;;;;;-0.90;99.90;;;;;;4875966;29;19928;-76
2023/01/30 05:04:06;;;;;;;;;;;-0.90;99.90;;;;;;4876551;29;20369;-78
2023/01/30 05:06:33;;;;;;;;;;;-0.90;99.90;;;;;;4875525;29;20434;-78
2023/01/30 05:09:00;;;;;;;;;;;-1.00;99.90;;;;;;4870589;29;20018;-79
2023/01/30 05:11:28;;;;;;;;;;;-0.90;99.90;;;;;;4859451;29;19931;-78
2023/01/30 05:13:55;;;;;;;;;;;-1.00;99.90;;;;;;4854126;29;19935;-78
2023/01/30 05:16:24;;;;;;;;;;;-1.00;99.90;;;;;;4872164;29;19971;-78
2023/01/30 05:18:51;;;;;;;;;;;-1.00;99.90;;;;;;4875141;29;19995;-78
2023/01/30 05:21:19;;;;;;;;;;;-1.00;99.90;;;;;;4878597;29;19932;-78
2023/01/30 05:23:46;;;;;;;;;;;-1.00;99.90;;;;;;4872793;29;19940;-77
2023/01/30 05:26:13;;;;;;;;;;;-1.00;99.90;;;;;;4874716;29;19931;-78
2023/01/30 05:28:40;;;;;;;;;;;-1.00;99.90;;;;;;4870773;29;19928;-78
2023/01/30 05:31:08;;;;;;;;;;;-1.00;99.90;;;;;;4871791;29;19967;-78
2023/01/30 05:33:37;;;;;;;;;;;-1.00;99.90;;;;;;4874787;29;19938;-78
2023/01/30 05:36:04;;;;;;;;;;;-1.00;99.90;;;;;;4872274;29;19963;-79
2023/01/30 05:38:31;;;;;;;;;;;-1.00;99.90;;;;;;4873565;29;19928;-78
2023/01/30 05:41:00;;;;;;;;;;;-1.00;99.90;;;;;;4875054;29;19935;-78
2023/01/30 05:43:27;;;;;;;;;;;-1.00;99.90;;;;;;4882607;29;19928;-80
2023/01/30 05:45:54;;;;;;;;;;;-1.00;99.90;;;;;;4877455;29;19991;-78
2023/01/30 05:48:22;;;;;;;;;;;-1.00;99.90;;;;;;4890675;29;20303;-78
2023/01/30 05:50:58;;;;;;;;;;;-1.00;99.90;;;;;;4891198;29;19962;-80
2023/01/30 05:53:30;;;;;;;;;;;-1.00;99.90;;;;;;4889298;29;20022;-79
2023/01/30 05:55:59;;;;;;;;;;;-1.00;99.90;;;;;;4879896;29;19932;-79
2023/01/30 05:58:28;;;;;;;;;;;-1.00;99.90;;;;;;4881513;29;19950;-79
2023/01/30 06:04:37;;;;;;;;;;;-1.10;99.90;;;;;;4874385;29;20650;-80
2023/01/30 06:07:06;;;;;;;;;;;-1.10;99.90;;;;;;4881676;29;19978;-78
2023/01/30 06:09:35;;;;;;;;;;;-1.10;99.90;;;;;;4879743;29;19927;-80
2023/01/30 06:16:18;;;;;;;;;;;-1.10;99.90;;;;;;4875578;29;19936;-81
2023/01/30 06:18:47;;;;;;;;;;;-1.10;99.90;;;;;;4882755;29;19979;-78
2023/01/30 06:21:17;;;;;;;;;;;-1.10;99.90;;;;;;4883389;29;19932;-80
2023/01/30 06:23:51;;;;;;;;;;;-1.10;99.90;;;;;;4858987;29;19932;-79
2023/01/30 06:26:19;;;;;;;;;;;-1.00;99.90;;;;;;4880531;29;20015;-79
2023/01/30 06:28:47;;;;;;;;;;;-1.10;99.90;;;;;;4878453;29;20292;-79
2023/01/30 06:31:18;;;;;;;;;;;-1.10;99.90;;;;;;4877649;29;19932;-79
2023/01/30 06:33:45;;;;;;;;;;;-1.10;99.90;;;;;;4876871;29;19934;-78
2023/01/30 06:36:12;;;;;;;;;;;-1.10;99.90;;;;;;4868225;29;19932;-79
2023/01/30 06:38:39;;;;;;;;;;;-1.10;99.90;;;;;;4875883;29;19939;-81
2023/01/30 06:41:08;;;;;;;;;;;-1.00;99.90;;;;;;4869256;29;19934;-80
2023/01/30 06:43:35;;;;;;;;;;;-1.00;99.90;;;;;;4876484;29;19928;-79
2023/01/30 06:46:02;;;;;;;;;;;-1.10;99.90;;;;;;4871200;29;19935;-80
2023/01/30 06:48:29;;;;;;;;;;;-1.10;99.90;;;;;;4869745;29;19928;-80
2023/01/30 06:50:56;;;;;;;;;;;-1.10;99.90;;;;;;4871706;29;19979;-79
2023/01/30 06:53:29;;;;;;;;;;;-1.00;99.90;;;;;;4871401;29;19928;-80
2023/01/30 06:55:57;;;;;;;;;;;-1.10;99.90;;;;;;4871487;29;19931;-80
2023/01/30 06:58:25;;;;;;;;;;;-1.10;99.90;;;;;;4875315;29;19931;-81
2023/01/30 07:00:52;;;;;;;;;;;-1.10;99.90;;;;;;4871367;29;19946;-78
2023/01/30 07:03:19;;;;;;;;;;;-1.00;99.90;;;;;;4872759;29;19928;-80
2023/01/30 07:05:47;;;;;;;;;;;-1.00;99.90;;;;;;4870554;29;19950;-79
2023/01/30 07:08:15;;;;;;;;;;;-1.00;99.90;;;;;;4868778;29;19932;-81
2023/01/30 07:10:42;;;;;;;;;;;-1.10;99.90;;;;;;4883627;29;19928;-81
2023/01/30 07:13:09;;;;;;;;;;;-1.00;99.90;;;;;;4881636;29;20403;-80
2023/01/30 07:15:37;;;;;;;;;;;-1.00;99.90;;;;;;4883871;29;19979;-80
2023/01/30 07:18:04;;;;;;;;;;;-1.10;99.90;;;;;;4884042;29;19927;-80
2023/01/30 07:20:31;;;;;;;;;;;-1.10;99.90;;;;;;4879069;29;20091;-80
2023/01/30 07:22:58;;;;;;;;;;;-1.00;99.90;;;;;;4881953;29;20011;-80
2023/01/30 07:25:26;;;;;;;;;;;-1.00;99.90;;;;;;4879368;29;19939;-79
2023/01/30 07:27:53;;;;;;;;;;;-1.00;99.90;;;;;;4874931;29;19935;-79
2023/01/30 07:30:20;;;;;;;;;;;-1.00;99.90;;;;;;4882363;29;19928;-80
2023/01/30 07:32:51;;;;;;;;;;;-1.00;99.90;;;;;;4873719;29;19940;-79
2023/01/30 07:35:18;;;;;;;;;;;-1.10;99.90;;;;;;4871160;29;20007;-80
2023/01/30 07:37:45;;;;;;;;;;;-1.10;99.90;;;;;;4874268;29;20018;-81
2023/01/30 07:40:13;;;;;;;;;;;-1.10;99.90;;;;;;4868685;29;19928;-80
2023/01/30 07:42:40;;;;;;;;;;;-1.10;99.90;;;;;;4882473;29;20403;-79
2023/01/30 07:45:07;;;;;;;;;;;-1.10;99.90;;;;;;4878915;29;19987;-80
2023/01/30 07:47:34;;;;;;;;;;;-1.10;99.90;;;;;;4885511;29;19970;-80
2023/01/30 07:50:03;;;;;;;;;;;-1.10;99.90;;;;;;4889828;29;19935;-79
2023/01/30 07:52:29;;;;;;;;;;;-1.10;99.90;;;;;;4880305;29;20369;-80
2023/01/30 07:54:56;;;;;;;;;;;-1.10;99.90;;;;;;4879159;29;19942;-80
2023/01/30 07:57:23;;;;;;;;;;;-1.10;99.90;;;;;;4877020;29;19928;-79
2023/01/30 07:59:50;;;;;;;;;;;-1.10;99.90;;;;;;4878568;29;19991;-80
2023/01/30 08:02:18;;;;;;;;;;;-1.10;99.90;;;;;;4879713;29;19928;-80
2023/01/30 08:04:45;;;;;;;;;;;-1.10;99.90;;;;;;4879525;29;19936;-80
2023/01/30 08:07:13;;;;;;;;;;;-1.10;99.90;;;;;;4878243;29;19928;-79
2023/01/30 08:09:40;;;;;;;;;;;-1.10;99.90;;;;;;4877488;29;19995;-80
2023/01/30 08:12:07;;;;;;;;;;;-1.10;99.90;;;;;;4889662;29;19927;-80
2023/01/30 08:14:34;;;;;;;;;;;-1.10;99.90;;;;;;4882638;29;20418;-79
2023/01/30 08:17:01;;;;;;;;;;;-1.10;99.90;;;;;;4880593;29;20048;-80
2023/01/30 08:19:28;;;;;;;;;;;-1.10;99.90;;;;;;4876919;29;19943;-80
2023/01/30 08:21:55;;;;;;;;;;;-1.10;99.90;;;;;;4877591;29;19959;-80
2023/01/30 08:24:23;;;;;;;;;;;-1.10;99.90;;;;;;4887782;29;20000;-80
2023/01/30 08:26:50;;;;;;;;;;;-1.10;99.90;;;;;;4876266;29;19935;-79
2023/01/30 08:29:17;;;;;;;;;;;-1.10;99.90;;;;;;4877082;29;19932;-81
2023/01/30 08:31:43;;;;;;;;;;;-1.10;99.90;;;;;;4862174;29;19980;-79
2023/01/30 08:34:10;;;;;;;;;;;-1.10;99.90;;;;;;4887840;29;19931;-79
2023/01/30 08:36:37;;;;;;;;;;;-1.10;99.90;;;;;;4875855;29;19997;-80
2023/01/30 08:39:14;;;;;;;;;;;-1.10;99.90;;;;;;4884616;29;19928;-81
2023/01/30 08:41:52;;;;;;;;;;;-1.10;99.90;;;;;;4881089;29;19953;-82
2023/01/30 08:44:19;;;;;;;;;;;-1.10;99.90;;;;;;4879376;29;19954;-80
2023/01/30 08:46:46;;;;;;;;;;;-1.00;99.90;;;;;;4868399;29;19932;-81
2023/01/30 08:49:13;;;;;;;;;;;-1.10;99.90;;;;;;4887166;29;19934;-80
2023/01/30 08:51:41;;;;;;;;;;;-1.10;99.90;;;;;;4885498;29;20014;-81
2023/01/30 08:54:08;;;;;;;;;;;-1.00;99.90;;;;;;4887385;29;20040;-81
2023/01/30 08:56:35;;;;;;;;;;;-1.10;99.90;;;;;;4888492;29;19928;-79
2023/01/30 08:59:03;;;;;;;;;;;-1.10;99.90;;;;;;4883434;29;19959;-81
2023/01/30 09:01:30;;;;;;;;;;;-1.10;99.90;;;;;;4879024;29;19967;-79
2023/01/30 09:04:00;;;;;;;;;;;-1.10;99.90;;;;;;5437285;23;19927;-81
2023/01/30 09:06:27;;;;;;;;;;;-1.00;99.90;;;;;;4894928;29;19927;-80
2023/01/30 09:08:57;;;;;;;;;;;-1.10;99.90;;;;;;4897517;29;19928;-81
2023/01/30 09:11:25;;;;;;;;;;;-1.10;99.90;;;;;;4897715;29;19963;-78
2023/01/30 09:13:52;;;;;;;;;;;-1.10;99.90;;;;;;4901145;29;21036;-79
2023/01/30 09:16:21;;;;;;;;;;;-1.00;99.90;;;;;;4904672;29;19916;-80
2023/01/30 09:18:48;;;;;;;;;;;-1.00;99.90;;;;;;4894495;29;20426;-78
2023/01/30 09:21:15;;;;;;;;;;;-1.00;99.90;;;;;;4890855;29;20409;-79
2023/01/30 09:23:42;;;;;;;;;;;-1.00;99.90;;;;;;4904137;29;19952;-79
2023/01/30 09:26:09;;;;;;;;;;;-1.00;99.90;;;;;;4895549;29;19973;-80
2023/01/30 09:28:36;;;;;;;;;;;-1.00;99.90;;;;;;4880845;29;19967;-80
2023/01/30 09:31:03;;;;;;;;;;;-1.00;99.90;;;;;;4906027;29;19981;-80
2023/01/30 09:33:33;;;;;;;;;;;-1.00;99.90;;;;;;4895567;29;19988;-80
2023/01/30 09:36:00;;;;;;;;;;;-1.00;99.90;;;;;;4896388;29;19987;-80
2023/01/30 09:38:27;;;;;;;;;;;-1.00;99.90;;;;;;4888421;29;19927;-79
2023/01/30 09:40:59;;;;;;;;;;;-1.00;99.90;;;;;;4894795;29;19928;-81
2023/01/30 09:43:31;;;;;;;;;;;-0.90;99.90;;;;;;4912375;29;19931;-80
2023/01/30 09:46:07;;;;;;;;;;;-0.90;99.90;;;;;;4896255;29;19927;-80
2023/01/30 09:48:39;;;;;;;;;;;-1.00;99.90;;;;;;4891311;29;19951;-80
2023/01/30 09:51:11;;;;;;;;;;;-0.90;99.90;;;;;;4894534;29;19928;-80
2023/01/30 10:50:18;;;;;;;;;;;-0.50;99.90;;;;;;5196742;23;19944;-79
2023/01/30 10:52:49;;;;;;;;;;;-0.50;99.90;;;;;;4878435;29;19932;-79
2023/01/30 10:55:23;;;;;;;;;;;-0.40;99.90;;;;;;4880606;29;19928;-80
2023/01/30 10:57:56;;;;;;;;;;;-0.40;99.90;;;;;;4885512;29;19935;-80
2023/01/30 11:00:26;;;;;;;;;;;-0.40;99.90;;;;;;4874511;29;19939;-78
2023/01/30 11:03:19;;;;;;;;;;;-0.40;99.90;;;;;;4873686;29;19955;-78
2023/01/30 11:05:49;;;;;;;;;;;-0.40;99.90;;;;;;4871906;29;19931;-80
2023/01/30 11:08:19;;;;;;;;;;;-0.40;99.90;;;;;;4871665;29;20020;-79
2023/01/30 11:10:46;;;;;;;;;;;-0.40;99.90;;;;;;4863676;29;19939;-79
2023/01/30 11:13:17;;;;;;;;;;;-0.30;99.90;;;;;;4874976;29;20291;-80
2023/01/30 11:15:45;;;;;;;;;;;-0.30;99.90;;;;;;4872630;29;19931;-80
2023/01/30 11:18:13;;;;;;;;;;;-0.30;99.90;;;;;;4873662;29;20420;-78
2023/01/30 11:20:40;;;;;;;;;;;-0.30;99.90;;;;;;4863885;29;19935;-79
2023/01/30 11:23:21;;;;;;;;;;;-0.20;99.90;;;;;;4848050;29;19932;-80
2023/01/30 11:25:49;;;;;;;;;;;-0.20;99.90;;;;;;4855836;29;19962;-80
2023/01/30 11:28:18;;;;;;;;;;;-0.20;99.90;;;;;;4873176;29;19928;-79
2023/01/30 11:30:49;;;;;;;;;;;-0.20;99.90;;;;;;4869830;29;20031;-80
2023/01/30 11:33:17;;;;;;;;;;;-0.20;99.90;;;;;;4865685;29;19935;-78
2023/01/30 11:35:51;;;;;;;;;;;-0.10;99.90;;;;;;4864694;29;20360;-79
2023/01/30 11:38:22;;;;;;;;;;;-0.10;99.90;;;;;;4875661;29;19934;-78
2023/01/30 11:40:49;;;;;;;;;;;-0.10;99.90;;;;;;4869923;29;19973;-79
2023/01/30 11:43:16;;;;;;;;;;;-0.10;99.90;;;;;;4871629;29;19974;-80
2023/01/30 11:45:44;;;;;;;;;;;0.00;99.90;;;;;;4869312;29;19964;-78
2023/01/30 11:48:13;;;;;;;;;;;0.00;99.90;;;;;;4864502;29;20459;-80
2023/01/30 11:50:42;;;;;;;;;;;0.00;99.90;;;;;;4867051;29;20368;-79
2023/01/30 11:53:30;;;;;;;;;;;0.00;99.90;;;;;;4863914;29;19936;-79
2023/01/30 11:55:59;;;;;;;;;;;0.00;99.90;;;;;;4852263;29;20349;-79
2023/01/30 11:58:30;;;;;;;;;;;0.00;99.90;;;;;;4871161;29;19943;-78
2023/01/30 12:00:58;;;;;;;;;;;0.00;99.90;;;;;;4872178;29;19944;-78
2023/01/30 12:03:28;;;;;;;;;;;0.10;99.90;;;;;;4872816;29;19928;-78
2023/01/30 12:05:55;;;;;;;;;;;0.10;99.90;;;;;;4868650;29;20306;-78
2023/01/30 12:08:24;;;;;;;;;;;0.10;99.90;;;;;;4872096;29;19938;-79
2023/01/30 12:10:53;;;;;;;;;;;0.10;99.90;;;;;;4872047;29;19989;-80
2023/01/30 12:13:25;;;;;;;;;;;0.10;99.90;;;;;;4865636;29;19936;-79
2023/01/30 12:15:57;;;;;;;;;;;0.20;99.90;;;;;;4870849;29;19939;-77
2023/01/30 12:18:29;;;;;;;;;;;0.20;99.90;;;;;;4877439;29;19935;-80
2023/01/30 12:20:58;;;;;;;;;;;0.20;99.90;;;;;;4876844;29;19967;-78
2023/01/30 12:23:39;;;;;;;;;;;0.20;99.90;;;;;;4872513;29;20302;-78
2023/01/30 12:26:10;;;;;;;;;;;0.20;99.90;;;;;;4873900;29;19980;-79
2023/01/30 12:28:43;;;;;;;;;;;0.20;99.90;;;;;;4871484;29;19934;-79
2023/01/30 12:31:12;;;;;;;;;;;0.30;99.90;;;;;;4868076;29;19983;-80
2023/01/30 12:33:39;;;;;;;;;;;0.20;99.90;;;;;;4871331;29;19960;-78
2023/01/30 12:36:12;;;;;;;;;;;0.30;99.90;;;;;;4869004;29;19936;-78
2023/01/30 12:38:46;;;;;;;;;;;0.30;99.90;;;;;;4873035;29;20532;-79
2023/01/30 12:41:28;;;;;;;;;;;0.30;99.90;;;;;;4860789;29;20322;-79
2023/01/30 12:44:07;;;;;;;;;;;0.30;99.90;;;;;;4870754;29;20406;-78
2023/01/30 12:46:40;;;;;;;;;;;0.40;99.90;;;;;;4871216;29;19932;-78
2023/01/30 12:49:28;;;;;;;;;;;0.40;99.90;;;;;;4876219;29;20465;-77
2023/01/30 12:52:04;;;;;;;;;;;0.30;99.90;;;;;;4870154;29;19934;-79
2023/01/30 12:54:39;;;;;;;;;;;0.40;99.90;;;;;;4872787;29;20128;-78
2023/01/30 12:57:13;;;;;;;;;;;0.40;99.90;;;;;;4870522;29;19997;-78
2023/01/30 12:59:49;;;;;;;;;;;0.40;99.90;;;;;;4865751;29;19928;-77
2023/01/30 13:02:24;;;;;;;;;;;0.40;99.90;;;;;;4872045;29;19934;-77
2023/01/30 13:04:58;;;;;;;;;;;0.40;99.90;;;;;;4869839;29;19927;-77
2023/01/30 13:07:27;;;;;;;;;;;0.50;99.90;;;;;;4867496;29;20613;-78
2023/01/30 13:10:02;;;;;;;;;;;0.50;99.90;;;;;;4864410;29;20420;-79
2023/01/30 13:12:35;;;;;;;;;;;0.50;99.90;;;;;;4876244;29;19934;-78
2023/01/30 13:15:07;;;;;;;;;;;0.50;99.90;;;;;;4852232;29;19935;-79
2023/01/30 13:17:40;;;;;;;;;;;0.50;99.90;;;;;;4869658;29;20015;-79
2023/01/30 13:20:15;;;;;;;;;;;0.50;99.90;;;;;;4867662;29;19960;-78
2023/01/30 13:22:44;;;;;;;;;;;0.50;99.90;;;;;;4873928;29;19985;-78
2023/01/30 13:25:16;;;;;;;;;;;0.50;99.90;;;;;;4865741;29;19928;-78
2023/01/30 13:27:44;;;;;;;;;;;0.50;99.90;;;;;;4862341;29;19935;-78
2023/01/30 13:30:16;;;;;;;;;;;0.50;99.90;;;;;;4869588;29;19932;-79
2023/01/30 13:32:46;;;;;;;;;;;0.60;99.90;;;;;;4866445;29;19934;-78
2023/01/30 13:35:16;;;;;;;;;;;0.50;99.90;;;;;;4869660;29;20023;-77
2023/01/30 13:37:45;;;;;;;;;;;0.60;99.90;;;;;;4857494;29;19927;-79
2023/01/30 13:40:18;;;;;;;;;;;0.60;99.90;;;;;;4868863;29;19932;-79
2023/01/30 13:42:49;;;;;;;;;;;0.60;99.90;;;;;;4862150;29;19974;-79
2023/01/30 13:45:19;;;;;;;;;;;0.60;99.90;;;;;;4875278;29;19931;-79
2023/01/30 13:47:50;;;;;;;;;;;0.60;99.90;;;;;;4876260;29;19928;-80
2023/01/30 13:50:25;;;;;;;;;;;0.60;99.90;;;;;;4889189;29;19935;-80
2023/01/30 13:52:54;;;;;;;;;;;0.60;99.90;;;;;;4872188;29;19928;-80
2023/01/30 13:55:25;;;;;;;;;;;0.60;99.90;;;;;;4885317;29;19939;-79
2023/01/30 13:57:56;;;;;;;;;;;0.60;99.90;;;;;;4875591;29;19936;-79
2023/01/30 14:00:30;;;;;;;;;;;0.70;99.90;;;;;;4864428;29;19959;-80
2023/01/30 14:03:21;;;;;;;;;;;0.70;99.90;;;;;;4864519;29;19928;-78
2023/01/30 14:06:06;;;;;;;;;;;0.70;99.90;;;;;;4870542;29;19963;-79
2023/01/30 14:08:38;;;;;;;;;;;0.70;99.90;;;;;;4863561;29;19988;-78
2023/01/30 14:11:27;;;;;;;;;;;0.70;99.90;;;;;;4849893;29;19932;-79
2023/01/30 14:13:58;;;;;;;;;;;0.70;99.90;;;;;;4870140;29;19928;-78
2023/01/30 14:16:39;;;;;;;;;;;0.70;99.90;;;;;;4871045;29;19935;-79
2023/01/30 14:19:19;;;;;;;;;;;0.80;99.90;;;;;;4865531;29;19935;-78
2023/01/30 14:21:54;;;;;;;;;;;0.70;99.90;;;;;;4868695;29;20022;-79
2023/01/30 14:24:22;;;;;;;;;;;0.80;99.90;;;;;;4869513;29;19928;-78
2023/01/30 14:27:04;;;;;;;;;;;0.80;99.90;;;;;;4853433;29;19936;-80
2023/01/30 14:29:50;;;;;;;;;;;0.80;99.90;;;;;;4885334;29;19998;-78
2023/01/30 14:32:34;;;;;;;;;;;0.80;99.90;;;;;;4867359;29;19992;-78
2023/01/30 14:35:20;;;;;;;;;;;0.80;99.90;;;;;;4867104;29;20671;-78
2023/01/30 14:37:48;;;;;;;;;;;0.80;99.90;;;;;;4862461;29;19938;-78
2023/01/30 14:40:35;;;;;;;;;;;0.80;99.90;;;;;;4862224;29;20279;-78
2023/01/30 14:43:24;;;;;;;;;;;0.80;99.90;;;;;;4869296;29;19935;-78
2023/01/30 14:45:57;;;;;;;;;;;0.80;99.90;;;;;;4868316;29;22027;-78
2023/01/30 14:48:32;;;;;;;;;;;0.80;99.90;;;;;;4867275;29;19928;-79
2023/01/30 14:51:19;;;;;;;;;;;0.80;99.90;;;;;;4851855;29;19976;-78
2023/01/30 14:53:51;;;;;;;;;;;0.90;99.90;;;;;;4871960;29;19936;-78
2023/01/30 14:56:19;;;;;;;;;;;0.90;99.90;;;;;;4865491;29;19967;-79
2023/01/30 14:58:52;;;;;;;;;;;0.90;99.90;;;;;;4865921;29;20006;-79
2023/01/30 15:01:19;;;;;;;;;;;0.90;99.90;;;;;;4874603;29;19928;-81
2023/01/30 15:03:46;;;;;;;;;;;0.90;99.90;;;;;;4870315;29;19939;-79
2023/01/30 15:06:18;;;;;;;;;;;0.90;99.90;;;;;;4871274;29;20680;-78
2023/01/30 15:08:47;;;;;;;;;;;0.90;99.90;;;;;;4873979;29;19986;-79
2023/01/30 15:11:17;;;;;;;;;;;0.90;99.90;;;;;;4869099;29;19988;-80
2023/01/30 15:13:47;;;;;;;;;;;0.90;99.90;;;;;;4870657;29;20370;-79
2023/01/30 15:16:24;;;;;;;;;;;0.90;99.90;;;;;;4867181;29;19936;-77
2023/01/30 15:19:01;;;;;;;;;;;0.90;99.90;;;;;;4876642;29;19932;-78
2023/01/30 15:21:43;;;;;;;;;;;0.90;99.90;;;;;;4870166;29;19982;-79
2023/01/30 15:24:22;;;;;;;;;;;0.90;99.90;;;;;;4871907;29;19987;-79
2023/01/30 15:26:53;;;;;;;;;;;0.90;99.90;;;;;;4857612;29;19934;-79
2023/01/30 15:29:31;;;;;;;;;;;0.90;99.90;;;;;;4878024;29;19928;-81
2023/01/30 15:32:02;;;;;;;;;;;0.90;99.90;;;;;;4877634;29;19928;-81
2023/01/30 15:34:30;;;;;;;;;;;0.90;99.90;;;;;;4886365;29;19967;-81
2023/01/30 15:36:57;;;;;;;;;;;0.90;99.90;;;;;;5023986;23;19980;-80
2023/01/30 15:39:26;;;;;;;;;;;0.90;99.90;;;;;;4956584;23;19936;-79
2023/01/30 15:41:57;;;;;;;;;;;0.90;99.90;;;;;;4885410;29;20394;-81
2023/01/30 15:44:38;;;;;;;;;;;0.90;99.90;;;;;;4886993;29;19997;-80
2023/01/30 15:47:18;;;;;;;;;;;0.90;99.90;;;;;;4877814;29;20012;-79